Time;durP1;ratioP1;P1;durP2;ratioP2;P2;SDS_P1;SDS_P2;PMS_P1;PMS_P2;Temp;Humidity;BMP_temperature;BMP_pressure;BME280_temperature;BME280_humidity;BME280_pressure;Samples;Min_cycle;Max_cycle;Signal;HPM_P1;HPM_P2
2022/12/17 13:07:27;;;;;;;45.47;26.83;;;0.60;99.90;;;;;;4962784;28;20150;-77
2022/12/17 13:09:57;;;;;;;49.63;26.50;;;0.60;99.90;;;;;;4964096;28;20051;-77
2022/12/17 13:12:34;;;;;;;46.43;28.87;;;0.50;99.90;;;;;;4964229;28;20577;-76
2022/12/17 13:15:08;;;;;;;66.17;26.80;;;0.60;99.90;;;;;;4964412;28;20085;-76
2022/12/17 13:17:42;;;;;;;49.40;29.60;;;0.60;99.90;;;;;;4965157;28;20058;-79
2022/12/17 13:20:22;;;;;;;45.03;30.57;;;0.60;99.90;;;;;;4966023;28;20054;-80
2022/12/17 13:23:04;;;;;;;49.70;29.43;;;0.60;99.90;;;;;;4965765;28;20605;-80
2022/12/17 13:25:30;;;;;;;42.95;31.63;;;0.60;99.90;;;;;;4962402;28;20042;-77
2022/12/17 13:27:55;;;;;;;47.17;26.97;;;0.60;99.90;;;;;;4961763;28;20272;-82
2022/12/17 13:30:30;;;;;;;45.27;31.13;;;0.60;99.90;;;;;;4945680;28;20139;-77
2022/12/17 13:33:28;;;;;;;47.87;27.10;;;0.60;99.90;;;;;;4962520;28;20031;-78
2022/12/17 13:36:15;;;;;;;42.57;26.83;;;0.60;99.90;;;;;;4961054;28;20078;-78
2022/12/17 13:39:09;;;;;;;46.40;25.30;;;0.50;99.90;;;;;;4962359;28;20053;-77
2022/12/17 13:41:37;;;;;;;46.57;28.47;;;0.50;99.90;;;;;;4927026;29;20145;-79
2022/12/17 13:44:21;;;;;;;51.17;27.30;;;0.50;99.90;;;;;;4940927;29;20164;-83
2022/12/17 13:46:48;;;;;;;50.43;30.07;;;0.50;99.90;;;;;;4945586;28;20047;-82
2022/12/17 13:49:25;;;;;;;50.70;28.57;;;0.50;99.90;;;;;;4944476;29;20046;-83
2022/12/17 13:52:17;;;;;;;48.07;29.07;;;0.50;99.90;;;;;;4959757;28;20043;-83
2022/12/17 13:54:52;;;;;;;37.40;25.23;;;0.50;99.90;;;;;;4945659;28;20066;-83
2022/12/17 13:57:25;;;;;;;43.37;28.30;;;0.50;99.90;;;;;;4943377;28;20375;-87
2022/12/17 13:59:54;;;;;;;45.30;28.13;;;0.50;99.90;;;;;;4941296;28;20129;-78
2022/12/17 14:02:28;;;;;;;38.57;26.50;;;0.50;99.90;;;;;;4945822;28;20051;-80
2022/12/17 14:04:55;;;;;;;45.57;23.33;;;0.50;99.90;;;;;;4945593;28;20088;-79
2022/12/17 14:07:22;;;;;;;38.80;24.07;;;0.50;99.90;;;;;;4943084;29;20087;-77
2022/12/17 14:10:00;;;;;;;46.00;25.67;;;0.50;99.90;;;;;;4944853;28;20039;-83
2022/12/17 14:12:28;;;;;;;60.53;32.17;;;0.50;99.90;;;;;;4938891;28;20098;-85
2022/12/17 14:15:20;;;;;;;41.40;27.17;;;0.50;99.90;;;;;;4944948;28;20672;-80
2022/12/17 14:17:48;;;;;;;48.87;27.20;;;0.50;99.90;;;;;;4943853;28;20544;-80
2022/12/17 14:20:20;;;;;;;46.17;27.23;;;0.50;99.90;;;;;;4943868;28;20051;-80
2022/12/17 14:22:49;;;;;;;38.70;25.03;;;0.40;99.90;;;;;;4942915;29;20086;-80
2022/12/17 14:25:21;;;;;;;45.77;30.20;;;0.40;99.90;;;;;;4943891;28;20131;-80
2022/12/17 14:27:59;;;;;;;53.08;29.35;;;0.40;99.90;;;;;;4925669;29;20039;-80
2022/12/17 14:30:35;;;;;;;51.47;30.07;;;0.40;99.90;;;;;;4943406;28;20549;-80
2022/12/17 14:33:01;;;;;;;49.47;26.03;;;0.40;99.90;;;;;;4944149;28;20045;-80
2022/12/17 14:35:30;;;;;;;41.37;28.83;;;0.40;99.90;;;;;;4943355;29;20047;-80
2022/12/17 14:37:56;;;;;;;39.77;26.87;;;0.30;99.90;;;;;;4944062;28;20036;-80
2022/12/17 14:40:24;;;;;;;54.73;30.50;;;0.40;99.90;;;;;;4941940;29;20039;-80
2022/12/17 14:42:51;;;;;;;55.63;30.13;;;0.40;99.90;;;;;;4940949;28;20093;-81
2022/12/17 14:45:24;;;;;;;52.00;29.63;;;0.30;99.90;;;;;;4944591;28;20454;-80
2022/12/17 14:47:53;;;;;;;;;;;0.30;99.90;;;;;;4927249;29;20541;-80
2022/12/17 14:50:30;;;;;;;59.47;27.53;;;0.30;99.90;;;;;;4944150;28;21230;-81
2022/12/17 14:52:59;;;;;;;53.93;27.47;;;0.30;99.90;;;;;;4942325;29;20035;-79
2022/12/17 14:55:32;;;;;;;49.00;28.63;;;0.20;99.90;;;;;;4943921;28;20098;-80
2022/12/17 14:58:13;;;;;;;56.27;31.07;;;0.20;99.90;;;;;;4921854;29;20043;-80
2022/12/17 15:00:53;;;;;;;53.53;25.63;;;0.20;99.90;;;;;;4940840;29;20447;-80
2022/12/17 15:03:27;;;;;;;45.30;28.83;;;0.20;99.90;;;;;;4955434;28;20035;-81
2022/12/17 15:06:01;;;;;;;40.53;24.27;;;0.20;99.90;;;;;;4943006;29;20098;-80
2022/12/17 15:08:33;;;;;;;55.33;28.77;;;0.10;99.90;;;;;;4944103;28;20063;-79
2022/12/17 15:10:58;;;;;;;43.42;27.33;;;0.10;99.90;;;;;;4942678;29;20069;-79
2022/12/17 15:13:24;;;;;;;59.83;29.17;;;0.10;99.90;;;;;;4942757;28;20027;-80
2022/12/17 15:15:50;;;;;;;49.87;29.57;;;0.00;99.90;;;;;;4942398;28;20506;-80
2022/12/17 15:18:15;;;;;;;57.63;30.40;;;0.00;99.90;;;;;;4943075;29;20042;-79
2022/12/17 15:20:41;;;;;;;58.10;26.93;;;0.00;99.90;;;;;;4942511;29;20109;-80
2022/12/17 15:23:19;;;;;;;56.37;28.90;;;0.00;99.90;;;;;;4941850;29;20109;-79
2022/12/17 15:25:46;;;;;;;40.57;27.47;;;0.00;99.90;;;;;;4942569;29;20236;-79
2022/12/17 15:28:11;;;;;;;59.40;27.10;;;0.00;99.90;;;;;;4942217;28;20043;-79
2022/12/17 15:30:38;;;;;;;52.60;27.37;;;-0.10;99.90;;;;;;4943814;28;20039;-80
2022/12/17 15:33:05;;;;;;;49.43;31.57;;;-0.10;99.90;;;;;;4941778;29;20141;-79
2022/12/17 15:35:31;;;;;;;45.40;31.23;;;-0.10;99.90;;;;;;4942283;29;20047;-79
2022/12/17 15:37:57;;;;;;;38.97;27.87;;;-0.10;99.90;;;;;;4941961;29;20039;-80
2022/12/17 15:40:22;;;;;;;50.37;28.60;;;-0.10;99.90;;;;;;4926703;29;20134;-79
2022/12/17 15:45:32;;;;;;;38.33;23.70;;;-0.20;99.90;;;;;;4943538;28;20058;-80
2022/12/17 15:47:57;;;;;;;42.23;25.33;;;-0.20;99.90;;;;;;4943056;28;20449;-80
2022/12/17 15:50:23;;;;;;;52.93;29.20;;;-0.20;99.90;;;;;;4942739;29;20050;-80
2022/12/17 15:52:49;;;;;;;46.83;24.47;;;-0.20;99.90;;;;;;4942012;29;20046;-81
2022/12/17 15:55:15;;;;;;;47.67;23.93;;;-0.30;99.90;;;;;;4944160;28;20050;-80
2022/12/17 15:57:40;;;;;;;48.63;26.80;;;-0.30;99.90;;;;;;4945068;29;20182;-80
2022/12/17 16:00:07;;;;;;;47.90;27.87;;;-0.30;99.90;;;;;;4946275;29;20260;-79
2022/12/17 16:02:32;;;;;;;43.93;28.67;;;-0.30;99.90;;;;;;4947093;28;20262;-80
2022/12/17 16:04:58;;;;;;;46.07;28.70;;;-0.30;99.90;;;;;;4947052;28;20024;-80
2022/12/17 16:07:23;;;;;;;42.77;30.43;;;-0.30;99.90;;;;;;4947814;28;20586;-79
2022/12/17 16:09:49;;;;;;;45.37;29.23;;;-0.30;99.90;;;;;;4946697;28;20513;-79
2022/12/17 16:12:15;;;;;;;53.33;27.77;;;-0.30;99.90;;;;;;4945562;28;20039;-79
2022/12/17 16:14:40;;;;;;;43.27;26.93;;;-0.30;99.90;;;;;;4944284;29;20054;-79
2022/12/17 16:17:06;;;;;;;70.73;29.50;;;-0.30;99.90;;;;;;4945258;29;20047;-79
2022/12/17 16:19:31;;;;;;;57.67;29.67;;;-0.30;99.90;;;;;;4945389;29;20057;-79
2022/12/17 16:21:57;;;;;;;39.60;25.33;;;-0.30;99.90;;;;;;4946300;28;20090;-79
2022/12/17 16:24:23;;;;;;;44.50;24.67;;;-0.30;99.90;;;;;;4946003;28;20406;-79
2022/12/17 16:26:48;;;;;;;44.57;28.37;;;-0.30;99.90;;;;;;4941374;29;20087;-82
2022/12/17 16:29:14;;;;;;;47.87;25.77;;;-0.30;99.90;;;;;;4942239;29;20042;-83
2022/12/17 16:31:40;;;;;;;47.17;28.57;;;-0.30;99.90;;;;;;4945121;28;20061;-82
2022/12/17 16:34:12;;;;;;;41.90;25.80;;;-0.30;99.90;;;;;;4946154;28;20046;-82
2022/12/17 16:36:38;;;;;;;40.90;26.13;;;-0.30;99.90;;;;;;4943930;29;20202;-80
2022/12/17 16:39:04;;;;;;;50.90;27.13;;;-0.40;99.90;;;;;;4943563;28;20534;-78
2022/12/17 16:41:30;;;;;;;47.60;28.87;;;-0.40;99.90;;;;;;4940192;29;20391;-78
2022/12/17 16:43:56;;;;;;;48.20;28.40;;;-0.40;99.90;;;;;;4945999;29;20091;-78
2022/12/17 16:46:33;;;;;;;48.47;25.93;;;-0.50;99.90;;;;;;4943909;29;20502;-78
2022/12/17 16:49:05;;;;;;;49.30;26.03;;;-0.50;99.90;;;;;;4944517;29;20047;-78
2022/12/17 16:51:30;;;;;;;50.95;27.60;;;-0.50;99.90;;;;;;4945682;28;20075;-77
2022/12/17 16:53:57;;;;;;;47.13;29.20;;;-0.50;99.90;;;;;;4946007;28;20525;-78
2022/12/17 16:56:26;;;;;;;47.07;29.03;;;-0.50;99.90;;;;;;4945098;28;20046;-78
2022/12/17 16:58:52;;;;;;;43.97;27.77;;;-0.50;99.90;;;;;;4943495;29;20066;-78
2022/12/17 17:01:20;;;;;;;48.50;30.53;;;-0.50;99.90;;;;;;4939902;28;20039;-77
2022/12/17 17:03:46;;;;;;;50.33;28.47;;;-0.60;99.90;;;;;;4943049;29;20050;-76
2022/12/17 17:06:12;;;;;;;50.87;27.77;;;-0.60;99.90;;;;;;4945175;28;20117;-76
2022/12/17 17:08:38;;;;;;;52.83;26.90;;;-0.60;99.90;;;;;;4945659;28;20103;-76
2022/12/17 17:11:28;;;;;;;48.40;28.53;;;-0.60;99.90;;;;;;4945330;28;20122;-76
2022/12/17 17:13:54;;;;;;;43.43;27.53;;;-0.60;99.90;;;;;;4944247;29;20070;-76
2022/12/17 17:16:22;;;;;;;52.60;29.70;;;-0.60;99.90;;;;;;4945670;28;20040;-77
2022/12/17 17:18:48;;;;;;;49.67;30.70;;;-0.60;99.90;;;;;;4945796;28;20076;-78
2022/12/17 17:21:33;;;;;;;45.93;24.73;;;-0.70;99.90;;;;;;4946121;28;20059;-76
2022/12/17 17:24:10;;;;;;;44.90;31.37;;;-0.70;99.90;;;;;;4944805;29;20521;-76
2022/12/17 17:26:36;;;;;;;42.90;25.97;;;-0.70;99.90;;;;;;4944308;28;20050;-76
2022/12/17 17:29:03;;;;;;;61.43;29.93;;;-0.70;99.90;;;;;;4943838;29;20629;-76
2022/12/17 17:31:29;;;;;;;43.07;26.17;;;-0.70;99.90;;;;;;4945773;28;20082;-75
2022/12/17 17:33:55;;;;;;;42.73;28.43;;;-0.70;99.90;;;;;;4944643;28;20087;-75
2022/12/17 17:36:30;;;;;;;46.07;25.27;;;-0.70;99.90;;;;;;4940164;28;20098;-75
2022/12/17 17:38:58;;;;;;;37.00;25.20;;;-0.70;99.90;;;;;;4940353;29;20678;-75
2022/12/17 17:41:26;;;;;;;56.10;25.77;;;-0.70;99.90;;;;;;4940517;28;20047;-75
2022/12/17 17:43:57;;;;;;;39.23;28.43;;;-0.80;99.90;;;;;;4941098;29;20118;-75
2022/12/17 17:46:24;;;;;;;61.00;30.60;;;-0.80;99.90;;;;;;4943467;28;20316;-76
2022/12/17 17:48:51;;;;;;;50.37;28.23;;;-0.80;99.90;;;;;;4944229;28;20554;-75
2022/12/17 17:51:20;;;;;;;42.10;26.90;;;-0.80;99.90;;;;;;4944964;29;20047;-76
2022/12/17 17:53:48;;;;;;;36.13;28.73;;;-0.80;99.90;;;;;;4946216;28;20340;-76
2022/12/17 17:56:16;;;;;;;44.13;25.60;;;-0.80;99.90;;;;;;4944182;28;20574;-76
2022/12/17 17:58:50;;;;;;;42.57;26.43;;;-0.80;99.90;;;;;;4940642;29;20066;-76
2022/12/17 18:01:20;;;;;;;50.57;25.97;;;-0.80;99.90;;;;;;4942080;29;20047;-76
2022/12/17 18:03:46;;;;;;;47.23;22.43;;;-0.80;99.90;;;;;;4944197;29;20035;-75
2022/12/17 18:06:12;;;;;;;39.10;27.53;;;-0.80;99.90;;;;;;4945092;28;20043;-76
2022/12/17 18:08:39;;;;;;;54.83;28.97;;;-0.80;99.90;;;;;;4943440;28;20051;-76
2022/12/17 18:11:07;;;;;;;47.47;27.13;;;-0.80;99.90;;;;;;4938999;28;20039;-77
2022/12/17 18:16:19;;;;;;;51.57;25.53;;;-0.80;99.90;;;;;;4934640;28;20138;-76
2022/12/17 18:18:45;;;;;;;53.53;26.87;;;-0.80;99.90;;;;;;4936546;28;20047;-77
2022/12/17 18:21:13;;;;;;;49.57;25.33;;;-0.80;99.90;;;;;;4942521;29;20458;-76
2022/12/17 18:23:40;;;;;;;45.67;28.33;;;-0.80;99.90;;;;;;4944062;29;20246;-76
2022/12/17 18:26:10;;;;;;;43.50;26.20;;;-0.90;99.90;;;;;;4944547;28;20401;-77
2022/12/17 18:28:37;;;;;;;45.07;27.20;;;-0.90;99.90;;;;;;4944143;29;20051;-77
2022/12/17 18:31:06;;;;;;;51.37;28.87;;;-0.90;99.90;;;;;;4943530;28;20043;-78
2022/12/17 18:33:32;;;;;;;63.33;30.70;;;-0.90;99.90;;;;;;4944241;28;20051;-77
2022/12/17 18:35:58;;;;;;;47.30;28.07;;;-0.90;99.90;;;;;;4942715;29;20090;-82
2022/12/17 18:38:23;;;;;;;44.70;25.00;;;-0.90;99.90;;;;;;4943275;29;20086;-77
2022/12/17 18:40:49;;;;;;;60.30;26.47;;;-0.90;99.90;;;;;;4944831;28;20046;-78
2022/12/17 18:43:23;;;;;;;48.73;29.70;;;-1.00;99.90;;;;;;4944293;28;20050;-76
2022/12/17 18:45:52;;;;;;;69.23;29.03;;;-1.00;99.90;;;;;;4945000;28;20398;-78
2022/12/17 18:48:19;;;;;;;38.43;24.40;;;-1.00;99.90;;;;;;4945964;28;20074;-75
2022/12/17 18:50:44;;;;;;;55.20;29.33;;;-1.00;99.90;;;;;;4944827;28;20588;-75
2022/12/17 18:53:10;;;;;;;44.53;24.57;;;-1.10;99.90;;;;;;4945134;28;20085;-74
2022/12/17 18:55:39;;;;;;;47.67;29.40;;;-1.00;99.90;;;;;;4946890;28;20074;-78
2022/12/17 18:58:08;;;;;;;48.17;28.37;;;-1.10;99.90;;;;;;4944107;28;20047;-78
2022/12/17 19:00:36;;;;;;;35.17;21.13;;;-1.10;99.90;;;;;;4945169;28;20486;-78
2022/12/17 19:03:03;;;;;;;52.07;29.87;;;-1.10;99.90;;;;;;4944745;28;20046;-78
2022/12/17 19:05:29;;;;;;;48.13;27.00;;;-1.10;99.90;;;;;;4945472;28;20075;-78
2022/12/17 19:07:55;;;;;;;48.80;26.10;;;-1.10;99.90;;;;;;4944596;28;20106;-79
2022/12/17 19:10:20;;;;;;;38.83;23.77;;;-1.10;99.90;;;;;;4944889;28;20490;-77
2022/12/17 19:12:46;;;;;;;40.10;24.40;;;-1.20;99.90;;;;;;4940838;29;20442;-77
2022/12/17 19:15:12;;;;;;;56.93;29.37;;;-1.20;99.90;;;;;;4944773;28;20082;-78
2022/12/17 19:17:37;;;;;;;38.37;27.20;;;-1.20;99.90;;;;;;4944505;28;20183;-77
2022/12/17 19:20:03;;;;;;;50.67;25.13;;;-1.20;99.90;;;;;;4943529;29;20486;-78
2022/12/17 19:22:29;;;;;;;53.40;29.07;;;-1.20;99.90;;;;;;4943115;29;20051;-78
2022/12/17 19:24:54;;;;;;;64.23;31.73;;;-1.20;99.90;;;;;;4943124;29;20043;-79
2022/12/17 19:27:20;;;;;;;35.97;23.77;;;-1.20;99.90;;;;;;4942544;29;20465;-78
2022/12/17 19:29:45;;;;;;;45.90;26.00;;;-1.20;99.90;;;;;;4945189;28;20047;-78
2022/12/17 19:32:11;;;;;;;46.00;28.83;;;-1.30;99.90;;;;;;4944506;28;20086;-77
2022/12/17 19:34:37;;;;;;;38.67;24.50;;;-1.30;99.90;;;;;;4944743;28;20051;-78
2022/12/17 19:37:03;;;;;;;44.90;28.43;;;-1.30;99.90;;;;;;4944937;28;20036;-77
2022/12/17 19:39:29;;;;;;;46.40;26.70;;;-1.30;99.90;;;;;;4944730;28;20058;-77
2022/12/17 19:41:54;;;;;;;45.33;25.40;;;-1.30;99.90;;;;;;4943553;28;20047;-77
2022/12/17 19:44:20;;;;;;;46.23;28.70;;;-1.30;99.90;;;;;;4944345;28;20415;-78
2022/12/17 19:46:48;;;;;;;54.27;26.40;;;-1.30;99.90;;;;;;4959712;28;20070;-78
2022/12/17 19:49:15;;;;;;;45.13;25.90;;;-1.30;99.90;;;;;;4944371;29;20142;-78
2022/12/17 19:51:42;;;;;;;43.77;25.00;;;-1.30;99.90;;;;;;4943573;29;20478;-77
2022/12/17 19:54:10;;;;;;;45.77;27.73;;;-1.40;99.90;;;;;;4944251;28;20054;-78
2022/12/17 19:56:36;;;;;;;39.00;24.57;;;-1.40;99.90;;;;;;4942331;29;20055;-77
2022/12/17 19:59:05;;;;;;;51.87;27.67;;;-1.40;99.90;;;;;;4943789;29;20505;-76
2022/12/17 20:01:33;;;;;;;41.80;26.70;;;-1.40;99.90;;;;;;4944301;28;20043;-76
2022/12/17 20:03:59;;;;;;;41.93;25.23;;;-1.40;99.90;;;;;;4943167;29;20063;-76
2022/12/17 20:06:28;;;;;;;45.37;27.20;;;-1.50;99.90;;;;;;4943132;28;20106;-77
2022/12/17 20:08:53;;;;;;;46.63;24.40;;;-1.50;99.90;;;;;;4942908;29;20414;-76
2022/12/17 20:11:32;;;;;;;35.00;26.50;;;-1.50;99.90;;;;;;4943262;28;20035;-77
2022/12/17 20:14:25;;;;;;;42.30;23.63;;;-1.50;99.90;;;;;;4942716;29;20449;-76
2022/12/17 20:16:56;;;;;;;51.58;23.73;;;-1.50;99.90;;;;;;4924646;29;20542;-77
2022/12/17 20:19:24;;;;;;;38.57;23.30;;;-1.50;99.90;;;;;;4944124;28;20043;-77
2022/12/17 20:21:51;;;;;;;49.60;26.23;;;-1.50;99.90;;;;;;4943721;28;20087;-78
2022/12/17 20:24:17;;;;;;;46.30;27.07;;;-1.60;99.90;;;;;;4944784;28;20039;-78
2022/12/17 20:26:45;;;;;;;39.40;25.13;;;-1.50;99.90;;;;;;4943311;28;20069;-78
2022/12/17 20:29:11;;;;;;;38.97;25.17;;;-1.50;99.90;;;;;;4943749;28;20039;-78
2022/12/17 20:31:37;;;;;;;53.70;25.77;;;-1.60;99.90;;;;;;4944235;28;20098;-78
2022/12/17 20:34:05;;;;;;;38.20;23.37;;;-1.60;99.90;;;;;;4942853;29;20510;-77
2022/12/17 20:36:31;;;;;;;51.33;24.17;;;-1.60;99.90;;;;;;4943247;29;20135;-77
2022/12/17 20:38:58;;;;;;;43.07;25.83;;;-1.60;99.90;;;;;;4942845;29;20047;-78
2022/12/17 20:41:26;;;;;;;53.73;24.73;;;-1.60;99.90;;;;;;4943211;28;20394;-78
2022/12/17 20:43:52;;;;;;;51.60;24.20;;;-1.60;99.90;;;;;;4947501;28;20114;-78
2022/12/17 20:46:19;;;;;;;32.30;22.00;;;-1.60;99.90;;;;;;4948193;28;20043;-78
2022/12/17 20:48:45;;;;;;;50.50;25.50;;;-1.60;99.90;;;;;;4947959;28;20450;-77
2022/12/17 20:51:20;;;;;;;44.10;23.67;;;-1.60;99.90;;;;;;4947572;28;20047;-77
2022/12/17 20:53:46;;;;;;;64.67;29.10;;;-1.60;99.90;;;;;;4947909;28;20067;-77
2022/12/17 20:56:15;;;;;;;38.00;22.40;;;-1.60;99.90;;;;;;4946310;29;20102;-78
2022/12/17 20:58:41;;;;;;;43.00;23.77;;;-1.60;99.90;;;;;;4946657;29;20117;-77
2022/12/17 21:01:08;;;;;;;36.17;23.50;;;-1.60;99.90;;;;;;4945622;29;20047;-78
2022/12/17 21:03:34;;;;;;;49.10;24.47;;;-1.70;99.90;;;;;;4946419;29;20101;-78
2022/12/17 21:06:04;;;;;;;43.67;24.47;;;-1.70;99.90;;;;;;4947151;28;20092;-78
2022/12/17 21:08:31;;;;;;;48.90;25.27;;;-1.70;99.90;;;;;;4946480;28;20578;-76
2022/12/17 21:10:56;;;;;;;43.53;26.63;;;-1.70;99.90;;;;;;4942946;29;20402;-78
2022/12/17 21:13:28;;;;;;;46.70;25.60;;;-1.70;99.90;;;;;;4945760;29;20046;-78
2022/12/17 21:15:54;;;;;;;40.47;23.55;;;-1.70;99.90;;;;;;4936170;29;20043;-78
2022/12/17 21:18:20;;;;;;;47.27;29.00;;;-1.70;99.90;;;;;;4946226;28;20050;-77
2022/12/17 21:21:01;;;;;;;32.33;22.90;;;-1.80;99.90;;;;;;4947006;28;20043;-77
2022/12/17 21:23:28;;;;;;;45.10;21.48;;;-1.80;99.90;;;;;;4945539;29;20142;-77
2022/12/17 21:26:03;;;;;;;45.47;25.77;;;-1.70;99.90;;;;;;4945569;28;20051;-77
2022/12/17 21:28:30;;;;;;;41.60;24.50;;;-1.80;99.90;;;;;;4945520;29;20043;-76
2022/12/17 21:30:56;;;;;;;48.83;23.33;;;-1.80;99.90;;;;;;4945024;29;20429;-77
2022/12/17 21:33:22;;;;;;;45.80;26.83;;;-1.80;99.90;;;;;;4946222;28;20134;-77
2022/12/17 21:35:47;;;;;;;43.87;23.97;;;-1.70;99.90;;;;;;4946518;28;20110;-77
2022/12/17 21:38:14;;;;;;;43.63;25.97;;;-1.80;99.90;;;;;;4946928;28;20055;-79
2022/12/17 21:40:40;;;;;;;43.43;23.37;;;-1.70;99.90;;;;;;4943149;29;20035;-77
2022/12/17 21:43:05;;;;;;;44.30;24.40;;;-1.80;99.90;;;;;;4928333;29;20660;-77
2022/12/17 21:45:39;;;;;;;50.93;25.20;;;-1.80;99.90;;;;;;4944735;28;20114;-77
2022/12/17 21:48:07;;;;;;;41.87;24.43;;;-1.80;99.90;;;;;;4946071;29;20035;-77
2022/12/17 21:50:32;;;;;;;50.73;25.27;;;-1.70;99.90;;;;;;4948341;28;20121;-77
2022/12/17 21:52:58;;;;;;;46.67;25.57;;;-1.80;99.90;;;;;;4942365;28;20174;-77
2022/12/17 21:55:24;;;;;;;52.67;25.53;;;-1.80;99.90;;;;;;4943314;29;20047;-78
2022/12/17 21:57:50;;;;;;;37.07;23.90;;;-1.80;99.90;;;;;;4944090;29;20051;-78
2022/12/17 22:00:16;;;;;;;35.77;22.03;;;-1.80;99.90;;;;;;4945388;28;20130;-78
2022/12/17 22:02:42;;;;;;;40.87;22.87;;;-1.80;99.90;;;;;;4943801;29;20035;-77
2022/12/17 22:05:08;;;;;;;40.00;23.93;;;-1.80;99.90;;;;;;4943587;29;20528;-77
2022/12/17 22:07:34;;;;;;;46.70;22.20;;;-1.80;99.90;;;;;;4944879;28;20123;-77
2022/12/17 22:09:59;;;;;;;49.63;22.83;;;-1.80;99.90;;;;;;4943277;28;20202;-77
2022/12/17 22:15:09;;;;;;;34.83;23.23;;;-1.80;99.90;;;;;;4944175;28;20478;-77
2022/12/17 22:17:36;;;;;;;42.93;25.83;;;-1.80;99.90;;;;;;4943559;29;20047;-77
2022/12/17 22:20:04;;;;;;;43.67;24.90;;;-1.80;99.90;;;;;;4943122;29;20525;-77
2022/12/17 22:22:29;;;;;;;48.67;26.33;;;-1.80;99.90;;;;;;4944869;28;20054;-78
2022/12/17 22:24:55;;;;;;;48.07;25.47;;;-1.80;99.90;;;;;;4944311;28;20694;-78
2022/12/17 22:27:21;;;;;;;51.67;25.70;;;-1.70;99.90;;;;;;4942582;29;20050;-79
2022/12/17 22:35:15;;;;;;;48.40;23.40;;;-1.70;99.90;;;;;;4940092;29;20106;-76
2022/12/17 22:37:40;;;;;;;40.00;24.30;;;-1.70;99.90;;;;;;4931560;29;20047;-76
2022/12/17 22:40:06;;;;;;;46.67;25.37;;;-1.70;99.90;;;;;;4944348;28;20048;-75
2022/12/17 22:45:17;;;;;;;43.43;23.57;;;-1.70;99.90;;;;;;4939512;29;20050;-77
2022/12/17 22:47:42;;;;;;;38.13;23.97;;;-1.70;99.90;;;;;;4944619;28;20051;-77
2022/12/17 22:50:08;;;;;;;41.27;25.10;;;-1.70;99.90;;;;;;4943270;29;20083;-76
2022/12/17 22:52:34;;;;;;;43.17;23.33;;;-1.70;99.90;;;;;;4945716;28;20036;-76
2022/12/17 22:55:00;;;;;;;41.03;24.83;;;-1.70;99.90;;;;;;4945285;28;20397;-76
2022/12/17 22:57:25;;;;;;;56.20;26.03;;;-1.70;99.90;;;;;;4940544;29;20043;-76
2022/12/17 22:59:51;;;;;;;49.77;24.27;;;-1.70;99.90;;;;;;4945322;28;20087;-76
2022/12/17 23:02:16;;;;;;;48.53;24.53;;;-1.70;99.90;;;;;;4944718;29;20051;-76
2022/12/17 23:04:42;;;;;;;44.20;21.53;;;-1.70;99.90;;;;;;4945038;28;20131;-76
2022/12/17 23:07:08;;;;;;;45.77;26.97;;;-1.70;99.90;;;;;;4944060;29;20595;-76
2022/12/17 23:09:33;;;;;;;50.23;24.07;;;-1.70;99.90;;;;;;4927783;29;20051;-77
2022/12/17 23:12:49;;;;;;;39.33;24.30;;;-1.70;99.90;;;;;;4942664;29;20098;-76
2022/12/17 23:14:47;;;;;;;48.13;25.73;;;-1.70;99.90;;;;;;4944279;28;20090;-76
2022/12/17 23:17:13;;;;;;;44.40;23.40;;;-1.60;99.90;;;;;;4944774;28;20078;-76
2022/12/17 23:19:38;;;;;;;50.20;24.90;;;-1.60;99.90;;;;;;4960072;28;20129;-76
2022/12/17 23:22:04;;;;;;;47.90;22.33;;;-1.60;99.90;;;;;;4943655;29;20434;-75
2022/12/17 23:24:29;;;;;;;55.43;25.60;;;-1.60;99.90;;;;;;4927893;29;20058;-75
2022/12/17 23:26:55;;;;;;;42.53;22.40;;;-1.60;99.90;;;;;;4942513;29;20061;-76
2022/12/17 23:29:21;;;;;;;46.00;24.23;;;-1.60;99.90;;;;;;4945058;28;20098;-76
2022/12/17 23:31:46;;;;;;;42.23;23.97;;;-1.70;99.90;;;;;;4944626;28;20130;-77
2022/12/17 23:34:12;;;;;;;37.80;25.03;;;-1.60;99.90;;;;;;4943490;29;20255;-76
2022/12/17 23:36:38;;;;;;;47.80;22.53;;;-1.70;99.90;;;;;;4943716;29;20183;-76
2022/12/17 23:39:04;;;;;;;44.90;23.27;;;-1.70;99.90;;;;;;4944287;28;20772;-77
2022/12/17 23:41:30;;;;;;;41.53;24.97;;;-1.70;99.90;;;;;;4943706;28;20035;-76
2022/12/17 23:43:57;;;;;;;36.10;23.57;;;-1.70;99.90;;;;;;4942800;29;20130;-75
2022/12/17 23:46:25;;;;;;;43.47;28.47;;;-1.70;99.90;;;;;;4942684;29;20071;-76
2022/12/17 23:48:51;;;;;;;49.30;24.07;;;-1.70;99.90;;;;;;4944268;28;20054;-76
2022/12/17 23:51:19;;;;;;;37.90;25.23;;;-1.70;99.90;;;;;;4944411;28;20035;-77
2022/12/17 23:53:44;;;;;;;43.03;21.93;;;-1.60;99.90;;;;;;4943465;29;20059;-77
2022/12/17 23:56:14;;;;;;;41.03;23.07;;;-1.60;99.90;;;;;;4943810;28;20050;-76
2022/12/17 23:58:42;;;;;;;49.40;23.03;;;-1.60;99.90;;;;;;4944436;28;20047;-76
